sensor_id;sensor_type;location;lat;lon;timestamp;P1;durP1;ratioP1;P2;durP2;ratioP2
28802;SDS011;15949;55.656;37.422;2023-12-28T00:01:39;5.13;;;3.33;;
28802;SDS011;15949;55.656;37.422;2023-12-28T00:06:44;4.85;;;3.28;;
28802;SDS011;15949;55.656;37.422;2023-12-28T00:11:50;5.40;;;3.55;;
28802;SDS011;15949;55.656;37.422;2023-12-28T00:16:56;5.50;;;3.47;;
28802;SDS011;15949;55.656;37.422;2023-12-28T00:22:01;5.60;;;3.70;;
28802;SDS011;15949;55.656;37.422;2023-12-28T00:27:07;6.63;;;3.80;;
28802;SDS011;15949;55.656;37.422;2023-12-28T00:32:12;5.55;;;3.33;;
28802;SDS011;15949;55.656;37.422;2023-12-28T00:37:18;4.85;;;3.45;;
28802;SDS011;15949;55.656;37.422;2023-12-28T00:42:24;5.72;;;3.58;;
28802;SDS011;15949;55.656;37.422;2023-12-28T00:47:29;6.03;;;3.65;;
28802;SDS011;15949;55.656;37.422;2023-12-28T00:52:35;7.50;;;3.67;;
28802;SDS011;15949;55.656;37.422;2023-12-28T00:57:41;5.90;;;3.40;;
28802;SDS011;15949;55.656;37.422;2023-12-28T01:02:46;5.43;;;3.45;;
28802;SDS011;15949;55.656;37.422;2023-12-28T01:07:52;4.60;;;3.30;;
28802;SDS011;15949;55.656;37.422;2023-12-28T01:12:58;5.80;;;3.47;;
28802;SDS011;15949;55.656;37.422;2023-12-28T01:18:03;4.15;;;3.25;;
28802;SDS011;15949;55.656;37.422;2023-12-28T01:23:09;5.05;;;3.47;;
28802;SDS011;15949;55.656;37.422;2023-12-28T01:28:15;5.22;;;3.03;;
28802;SDS011;15949;55.656;37.422;2023-12-28T01:33:20;3.80;;;2.97;;
28802;SDS011;15949;55.656;37.422;2023-12-28T01:38:26;5.18;;;3.40;;
28802;SDS011;15949;55.656;37.422;2023-12-28T01:43:32;4.43;;;3.13;;
28802;SDS011;15949;55.656;37.422;2023-12-28T01:48:37;4.63;;;3.28;;
28802;SDS011;15949;55.656;37.422;2023-12-28T01:53:43;4.10;;;3.22;;
28802;SDS011;15949;55.656;37.422;2023-12-28T01:58:50;5.13;;;3.33;;
28802;SDS011;15949;55.656;37.422;2023-12-28T02:03:57;4.85;;;3.55;;
28802;SDS011;15949;55.656;37.422;2023-12-28T02:09:03;5.70;;;3.88;;
28802;SDS011;15949;55.656;37.422;2023-12-28T02:14:08;6.15;;;3.53;;
28802;SDS011;15949;55.656;37.422;2023-12-28T02:19:28;4.47;;;3.50;;
28802;SDS011;15949;55.656;37.422;2023-12-28T02:30:14;5.25;;;3.80;;
28802;SDS011;15949;55.656;37.422;2023-12-28T02:35:26;7.13;;;3.90;;
28802;SDS011;15949;55.656;37.422;2023-12-28T02:40:37;6.07;;;3.80;;
28802;SDS011;15949;55.656;37.422;2023-12-28T02:45:49;5.07;;;3.90;;
28802;SDS011;15949;55.656;37.422;2023-12-28T02:50:54;6.00;;;4.05;;
28802;SDS011;15949;55.656;37.422;2023-12-28T02:56:00;5.22;;;3.90;;
28802;SDS011;15949;55.656;37.422;2023-12-28T03:01:05;5.78;;;4.15;;
28802;SDS011;15949;55.656;37.422;2023-12-28T03:06:11;7.82;;;4.35;;
28802;SDS011;15949;55.656;37.422;2023-12-28T03:11:17;6.30;;;3.80;;
28802;SDS011;15949;55.656;37.422;2023-12-28T03:16:22;7.20;;;3.95;;
28802;SDS011;15949;55.656;37.422;2023-12-28T03:21:28;5.07;;;4.00;;
28802;SDS011;15949;55.656;37.422;2023-12-28T03:26:37;4.88;;;3.67;;
28802;SDS011;15949;55.656;37.422;2023-12-28T03:31:43;7.47;;;3.70;;
28802;SDS011;15949;55.656;37.422;2023-12-28T03:36:49;5.22;;;3.70;;
28802;SDS011;15949;55.656;37.422;2023-12-28T03:41:55;6.05;;;4.00;;
28802;SDS011;15949;55.656;37.422;2023-12-28T03:47:01;6.55;;;3.88;;
28802;SDS011;15949;55.656;37.422;2023-12-28T03:52:06;9.35;;;4.10;;
28802;SDS011;15949;55.656;37.422;2023-12-28T03:57:12;6.22;;;3.95;;
28802;SDS011;15949;55.656;37.422;2023-12-28T04:02:18;6.80;;;3.67;;
28802;SDS011;15949;55.656;37.422;2023-12-28T04:07:23;5.10;;;3.28;;
28802;SDS011;15949;55.656;37.422;2023-12-28T04:12:29;5.68;;;3.08;;
28802;SDS011;15949;55.656;37.422;2023-12-28T04:17:34;5.72;;;3.22;;
28802;SDS011;15949;55.656;37.422;2023-12-28T04:22:40;5.97;;;3.50;;
28802;SDS011;15949;55.656;37.422;2023-12-28T04:27:48;4.10;;;3.05;;
28802;SDS011;15949;55.656;37.422;2023-12-28T04:32:54;5.05;;;3.25;;
28802;SDS011;15949;55.656;37.422;2023-12-28T04:38:00;4.45;;;3.17;;
28802;SDS011;15949;55.656;37.422;2023-12-28T04:43:05;4.25;;;3.20;;
28802;SDS011;15949;55.656;37.422;2023-12-28T04:48:11;4.75;;;3.47;;
28802;SDS011;15949;55.656;37.422;2023-12-28T04:53:17;6.82;;;3.35;;
28802;SDS011;15949;55.656;37.422;2023-12-28T04:58:22;5.30;;;3.20;;
28802;SDS011;15949;55.656;37.422;2023-12-28T05:03:28;4.68;;;2.83;;
28802;SDS011;15949;55.656;37.422;2023-12-28T05:08:33;5.50;;;3.38;;
28802;SDS011;15949;55.656;37.422;2023-12-28T05:13:39;4.40;;;3.10;;
28802;SDS011;15949;55.656;37.422;2023-12-28T05:18:45;6.40;;;3.40;;
28802;SDS011;15949;55.656;37.422;2023-12-28T05:23:51;5.18;;;3.60;;
28802;SDS011;15949;55.656;37.422;2023-12-28T05:28:57;5.45;;;3.50;;
28802;SDS011;15949;55.656;37.422;2023-12-28T05:34:02;5.40;;;3.00;;
28802;SDS011;15949;55.656;37.422;2023-12-28T05:39:08;4.97;;;3.25;;
28802;SDS011;15949;55.656;37.422;2023-12-28T05:44:14;5.32;;;3.15;;
28802;SDS011;15949;55.656;37.422;2023-12-28T05:49:20;5.93;;;3.40;;
28802;SDS011;15949;55.656;37.422;2023-12-28T05:54:26;8.98;;;3.20;;
28802;SDS011;15949;55.656;37.422;2023-12-28T05:59:31;4.40;;;2.67;;
28802;SDS011;15949;55.656;37.422;2023-12-28T06:04:37;5.60;;;3.35;;
28802;SDS011;15949;55.656;37.422;2023-12-28T06:09:42;4.18;;;3.10;;
28802;SDS011;15949;55.656;37.422;2023-12-28T06:14:48;3.92;;;2.80;;
28802;SDS011;15949;55.656;37.422;2023-12-28T06:19:54;4.60;;;2.80;;
28802;SDS011;15949;55.656;37.422;2023-12-28T06:24:59;5.20;;;3.20;;
28802;SDS011;15949;55.656;37.422;2023-12-28T06:30:05;5.20;;;3.30;;
28802;SDS011;15949;55.656;37.422;2023-12-28T06:35:11;4.70;;;3.20;;
28802;SDS011;15949;55.656;37.422;2023-12-28T06:40:17;6.05;;;3.10;;
28802;SDS011;15949;55.656;37.422;2023-12-28T06:45:22;4.07;;;2.95;;
28802;SDS011;15949;55.656;37.422;2023-12-28T06:50:32;4.93;;;3.30;;
28802;SDS011;15949;55.656;37.422;2023-12-28T06:55:38;6.47;;;3.20;;
28802;SDS011;15949;55.656;37.422;2023-12-28T07:00:44;4.57;;;3.05;;
28802;SDS011;15949;55.656;37.422;2023-12-28T07:05:50;4.70;;;2.78;;
28802;SDS011;15949;55.656;37.422;2023-12-28T07:10:56;5.45;;;2.97;;
28802;SDS011;15949;55.656;37.422;2023-12-28T07:16:02;4.95;;;3.10;;
28802;SDS011;15949;55.656;37.422;2023-12-28T07:21:08;4.25;;;3.25;;
28802;SDS011;15949;55.656;37.422;2023-12-28T07:26:15;5.60;;;3.13;;
28802;SDS011;15949;55.656;37.422;2023-12-28T07:31:25;5.88;;;3.17;;
28802;SDS011;15949;55.656;37.422;2023-12-28T07:36:31;4.57;;;3.15;;
28802;SDS011;15949;55.656;37.422;2023-12-28T07:41:37;4.93;;;3.22;;
28802;SDS011;15949;55.656;37.422;2023-12-28T07:46:42;4.03;;;3.00;;
28802;SDS011;15949;55.656;37.422;2023-12-28T07:51:48;4.65;;;3.20;;
28802;SDS011;15949;55.656;37.422;2023-12-28T07:56:54;4.55;;;3.25;;
28802;SDS011;15949;55.656;37.422;2023-12-28T08:01:59;4.60;;;3.28;;
28802;SDS011;15949;55.656;37.422;2023-12-28T08:07:05;4.15;;;3.03;;
28802;SDS011;15949;55.656;37.422;2023-12-28T08:12:12;3.97;;;3.03;;
28802;SDS011;15949;55.656;37.422;2023-12-28T08:17:18;3.42;;;2.83;;
28802;SDS011;15949;55.656;37.422;2023-12-28T08:22:23;7.97;;;3.90;;
28802;SDS011;15949;55.656;37.422;2023-12-28T08:27:29;5.75;;;3.85;;
28802;SDS011;15949;55.656;37.422;2023-12-28T08:32:34;7.43;;;4.10;;
28802;SDS011;15949;55.656;37.422;2023-12-28T08:37:40;6.85;;;4.25;;
28802;SDS011;15949;55.656;37.422;2023-12-28T08:42:46;6.22;;;4.00;;
28802;SDS011;15949;55.656;37.422;2023-12-28T08:47:51;7.55;;;4.35;;
28802;SDS011;15949;55.656;37.422;2023-12-28T08:52:57;6.03;;;4.10;;
28802;SDS011;15949;55.656;37.422;2023-12-28T08:58:03;5.53;;;3.97;;
28802;SDS011;15949;55.656;37.422;2023-12-28T09:03:08;5.55;;;4.15;;
28802;SDS011;15949;55.656;37.422;2023-12-28T09:08:14;5.35;;;3.85;;
28802;SDS011;15949;55.656;37.422;2023-12-28T09:13:20;8.30;;;4.63;;
28802;SDS011;15949;55.656;37.422;2023-12-28T09:18:26;5.72;;;4.05;;
28802;SDS011;15949;55.656;37.422;2023-12-28T09:23:32;7.15;;;4.13;;
28802;SDS011;15949;55.656;37.422;2023-12-28T09:28:38;7.63;;;3.97;;
28802;SDS011;15949;55.656;37.422;2023-12-28T09:33:43;5.85;;;3.90;;
28802;SDS011;15949;55.656;37.422;2023-12-28T09:38:49;6.82;;;4.40;;
28802;SDS011;15949;55.656;37.422;2023-12-28T09:43:58;6.65;;;4.07;;
28802;SDS011;15949;55.656;37.422;2023-12-28T09:49:11;6.32;;;3.97;;
28802;SDS011;15949;55.656;37.422;2023-12-28T09:54:17;7.13;;;4.10;;
28802;SDS011;15949;55.656;37.422;2023-12-28T09:59:24;6.10;;;4.10;;
28802;SDS011;15949;55.656;37.422;2023-12-28T10:04:30;6.50;;;3.80;;
28802;SDS011;15949;55.656;37.422;2023-12-28T10:09:36;8.55;;;4.10;;
28802;SDS011;15949;55.656;37.422;2023-12-28T10:14:41;3.55;;;2.72;;
28802;SDS011;15949;55.656;37.422;2023-12-28T10:19:47;4.93;;;3.75;;
28802;SDS011;15949;55.656;37.422;2023-12-28T10:24:53;5.93;;;3.83;;
28802;SDS011;15949;55.656;37.422;2023-12-28T10:29:59;5.80;;;4.07;;
28802;SDS011;15949;55.656;37.422;2023-12-28T10:35:05;4.65;;;3.80;;
28802;SDS011;15949;55.656;37.422;2023-12-28T10:40:12;5.70;;;3.70;;
28802;SDS011;15949;55.656;37.422;2023-12-28T10:45:21;5.25;;;3.83;;
28802;SDS011;15949;55.656;37.422;2023-12-28T10:50:30;4.95;;;3.65;;
28802;SDS011;15949;55.656;37.422;2023-12-28T11:01:13;5.40;;;4.00;;
28802;SDS011;15949;55.656;37.422;2023-12-28T11:06:26;5.50;;;4.10;;
28802;SDS011;15949;55.656;37.422;2023-12-28T11:11:33;5.60;;;3.70;;
28802;SDS011;15949;55.656;37.422;2023-12-28T11:16:40;5.97;;;4.25;;
28802;SDS011;15949;55.656;37.422;2023-12-28T11:21:47;4.43;;;3.47;;
28802;SDS011;15949;55.656;37.422;2023-12-28T11:26:55;5.30;;;3.92;;
28802;SDS011;15949;55.656;37.422;2023-12-28T11:32:01;4.70;;;3.47;;
28802;SDS011;15949;55.656;37.422;2023-12-28T11:37:07;5.47;;;3.85;;
28802;SDS011;15949;55.656;37.422;2023-12-28T11:42:18;4.90;;;4.15;;
28802;SDS011;15949;55.656;37.422;2023-12-28T11:47:25;5.30;;;4.25;;
28802;SDS011;15949;55.656;37.422;2023-12-28T11:52:34;7.18;;;4.20;;
28802;SDS011;15949;55.656;37.422;2023-12-28T11:57:40;5.15;;;3.55;;
28802;SDS011;15949;55.656;37.422;2023-12-28T12:02:46;4.53;;;3.00;;
28802;SDS011;15949;55.656;37.422;2023-12-28T12:07:51;6.22;;;2.70;;
28802;SDS011;15949;55.656;37.422;2023-12-28T12:12:57;3.17;;;2.30;;
28802;SDS011;15949;55.656;37.422;2023-12-28T12:18:03;2.70;;;2.20;;
28802;SDS011;15949;55.656;37.422;2023-12-28T12:23:10;2.30;;;2.03;;
28802;SDS011;15949;55.656;37.422;2023-12-28T12:28:17;2.78;;;2.10;;
28802;SDS011;15949;55.656;37.422;2023-12-28T12:33:22;2.78;;;2.00;;
28802;SDS011;15949;55.656;37.422;2023-12-28T12:38:31;3.28;;;2.13;;
28802;SDS011;15949;55.656;37.422;2023-12-28T12:43:37;3.45;;;2.17;;
28802;SDS011;15949;55.656;37.422;2023-12-28T12:48:53;3.58;;;2.30;;
28802;SDS011;15949;55.656;37.422;2023-12-28T12:54:09;2.08;;;1.70;;
28802;SDS011;15949;55.656;37.422;2023-12-28T12:59:14;2.03;;;1.73;;
28802;SDS011;15949;55.656;37.422;2023-12-28T13:04:24;2.05;;;1.83;;
28802;SDS011;15949;55.656;37.422;2023-12-28T13:09:29;2.90;;;1.85;;
28802;SDS011;15949;55.656;37.422;2023-12-28T13:14:35;2.78;;;2.15;;
28802;SDS011;15949;55.656;37.422;2023-12-28T13:19:40;3.00;;;2.28;;
28802;SDS011;15949;55.656;37.422;2023-12-28T13:24:46;3.42;;;2.35;;
28802;SDS011;15949;55.656;37.422;2023-12-28T13:29:52;3.65;;;2.70;;
28802;SDS011;15949;55.656;37.422;2023-12-28T13:34:57;3.72;;;2.55;;
28802;SDS011;15949;55.656;37.422;2023-12-28T13:40:03;6.07;;;3.55;;
28802;SDS011;15949;55.656;37.422;2023-12-28T13:45:10;10.95;;;7.20;;
28802;SDS011;15949;55.656;37.422;2023-12-28T13:50:15;5.45;;;3.50;;
28802;SDS011;15949;55.656;37.422;2023-12-28T13:55:21;4.32;;;2.90;;
28802;SDS011;15949;55.656;37.422;2023-12-28T14:00:27;4.80;;;3.00;;
28802;SDS011;15949;55.656;37.422;2023-12-28T14:05:32;5.35;;;3.00;;
28802;SDS011;15949;55.656;37.422;2023-12-28T14:10:38;4.63;;;2.97;;
28802;SDS011;15949;55.656;37.422;2023-12-28T14:15:44;4.43;;;2.70;;
28802;SDS011;15949;55.656;37.422;2023-12-28T14:20:49;5.47;;;3.67;;
28802;SDS011;15949;55.656;37.422;2023-12-28T14:25:55;4.43;;;3.33;;
28802;SDS011;15949;55.656;37.422;2023-12-28T14:31:01;5.10;;;3.40;;
28802;SDS011;15949;55.656;37.422;2023-12-28T14:36:10;5.40;;;3.90;;
28802;SDS011;15949;55.656;37.422;2023-12-28T14:41:33;7.25;;;4.80;;
28802;SDS011;15949;55.656;37.422;2023-12-28T14:46:40;5.70;;;4.10;;
28802;SDS011;15949;55.656;37.422;2023-12-28T14:51:46;6.57;;;4.15;;
28802;SDS011;15949;55.656;37.422;2023-12-28T14:56:51;6.63;;;4.00;;
28802;SDS011;15949;55.656;37.422;2023-12-28T15:01:57;6.55;;;3.97;;
28802;SDS011;15949;55.656;37.422;2023-12-28T15:07:03;8.38;;;4.60;;
28802;SDS011;15949;55.656;37.422;2023-12-28T15:12:09;6.07;;;3.85;;
28802;SDS011;15949;55.656;37.422;2023-12-28T15:17:15;7.28;;;4.82;;
28802;SDS011;15949;55.656;37.422;2023-12-28T15:22:20;7.95;;;5.30;;
28802;SDS011;15949;55.656;37.422;2023-12-28T15:27:26;9.73;;;5.60;;
28802;SDS011;15949;55.656;37.422;2023-12-28T15:32:32;9.82;;;5.45;;
28802;SDS011;15949;55.656;37.422;2023-12-28T15:37:39;7.93;;;5.20;;
28802;SDS011;15949;55.656;37.422;2023-12-28T15:42:44;10.70;;;6.60;;
28802;SDS011;15949;55.656;37.422;2023-12-28T15:47:50;10.02;;;5.57;;
28802;SDS011;15949;55.656;37.422;2023-12-28T15:52:56;15.88;;;10.40;;
28802;SDS011;15949;55.656;37.422;2023-12-28T15:58:05;8.33;;;6.00;;
28802;SDS011;15949;55.656;37.422;2023-12-28T16:03:10;11.02;;;6.55;;
28802;SDS011;15949;55.656;37.422;2023-12-28T16:08:16;9.35;;;6.55;;
28802;SDS011;15949;55.656;37.422;2023-12-28T16:13:22;8.68;;;6.15;;
28802;SDS011;15949;55.656;37.422;2023-12-28T16:18:27;11.95;;;7.50;;
28802;SDS011;15949;55.656;37.422;2023-12-28T16:23:33;21.60;;;12.35;;
28802;SDS011;15949;55.656;37.422;2023-12-28T16:28:39;10.45;;;7.22;;
28802;SDS011;15949;55.656;37.422;2023-12-28T16:33:45;14.07;;;9.18;;
28802;SDS011;15949;55.656;37.422;2023-12-28T16:38:51;15.13;;;9.38;;
28802;SDS011;15949;55.656;37.422;2023-12-28T16:43:57;8.98;;;6.00;;
28802;SDS011;15949;55.656;37.422;2023-12-28T16:49:03;9.35;;;5.75;;
28802;SDS011;15949;55.656;37.422;2023-12-28T16:54:09;8.82;;;5.50;;
28802;SDS011;15949;55.656;37.422;2023-12-28T16:59:17;7.45;;;4.97;;
28802;SDS011;15949;55.656;37.422;2023-12-28T17:04:22;7.18;;;4.45;;
28802;SDS011;15949;55.656;37.422;2023-12-28T17:09:28;7.95;;;5.35;;
28802;SDS011;15949;55.656;37.422;2023-12-28T17:14:34;6.45;;;4.35;;
28802;SDS011;15949;55.656;37.422;2023-12-28T17:19:40;4.25;;;3.15;;
28802;SDS011;15949;55.656;37.422;2023-12-28T17:24:48;5.32;;;3.47;;
28802;SDS011;15949;55.656;37.422;2023-12-28T17:30:00;4.57;;;3.17;;
28802;SDS011;15949;55.656;37.422;2023-12-28T17:35:11;4.05;;;2.80;;
28802;SDS011;15949;55.656;37.422;2023-12-28T17:40:17;4.18;;;2.72;;
28802;SDS011;15949;55.656;37.422;2023-12-28T17:45:31;3.75;;;2.80;;
28802;SDS011;15949;55.656;37.422;2023-12-28T17:50:48;3.38;;;2.00;;
28802;SDS011;15949;55.656;37.422;2023-12-28T17:55:55;3.03;;;1.85;;
28802;SDS011;15949;55.656;37.422;2023-12-28T18:01:01;5.07;;;2.30;;
28802;SDS011;15949;55.656;37.422;2023-12-28T18:06:07;3.13;;;2.28;;
28802;SDS011;15949;55.656;37.422;2023-12-28T18:11:12;3.38;;;2.58;;
28802;SDS011;15949;55.656;37.422;2023-12-28T18:16:18;2.90;;;2.35;;
28802;SDS011;15949;55.656;37.422;2023-12-28T18:21:26;3.55;;;2.47;;
28802;SDS011;15949;55.656;37.422;2023-12-28T18:26:32;3.17;;;2.25;;
28802;SDS011;15949;55.656;37.422;2023-12-28T18:31:38;4.70;;;2.65;;
28802;SDS011;15949;55.656;37.422;2023-12-28T18:36:43;2.95;;;2.15;;
28802;SDS011;15949;55.656;37.422;2023-12-28T18:41:49;2.78;;;2.20;;
28802;SDS011;15949;55.656;37.422;2023-12-28T18:46:54;4.30;;;2.80;;
28802;SDS011;15949;55.656;37.422;2023-12-28T18:52:00;5.35;;;3.50;;
28802;SDS011;15949;55.656;37.422;2023-12-28T18:57:06;4.55;;;3.45;;
28802;SDS011;15949;55.656;37.422;2023-12-28T19:02:12;3.55;;;2.80;;
28802;SDS011;15949;55.656;37.422;2023-12-28T19:07:17;4.15;;;3.15;;
28802;SDS011;15949;55.656;37.422;2023-12-28T19:12:23;3.58;;;3.03;;
28802;SDS011;15949;55.656;37.422;2023-12-28T19:17:29;5.05;;;3.10;;
28802;SDS011;15949;55.656;37.422;2023-12-28T19:22:34;4.35;;;3.00;;
28802;SDS011;15949;55.656;37.422;2023-12-28T19:27:40;5.13;;;3.55;;
28802;SDS011;15949;55.656;37.422;2023-12-28T19:32:46;4.45;;;3.28;;
28802;SDS011;15949;55.656;37.422;2023-12-28T19:37:51;6.55;;;3.17;;
28802;SDS011;15949;55.656;37.422;2023-12-28T19:42:57;5.18;;;3.67;;
28802;SDS011;15949;55.656;37.422;2023-12-28T19:48:03;5.00;;;3.50;;
28802;SDS011;15949;55.656;37.422;2023-12-28T19:53:09;4.25;;;3.30;;
28802;SDS011;15949;55.656;37.422;2023-12-28T19:58:19;5.22;;;3.45;;
28802;SDS011;15949;55.656;37.422;2023-12-28T20:03:24;5.75;;;3.92;;
28802;SDS011;15949;55.656;37.422;2023-12-28T20:08:30;5.85;;;3.90;;
28802;SDS011;15949;55.656;37.422;2023-12-28T20:13:36;7.05;;;4.05;;
28802;SDS011;15949;55.656;37.422;2023-12-28T20:18:41;5.68;;;3.47;;
28802;SDS011;15949;55.656;37.422;2023-12-28T20:23:47;4.72;;;3.58;;
28802;SDS011;15949;55.656;37.422;2023-12-28T20:28:52;6.18;;;3.55;;
28802;SDS011;15949;55.656;37.422;2023-12-28T20:33:58;5.18;;;3.75;;
28802;SDS011;15949;55.656;37.422;2023-12-28T20:39:04;5.13;;;3.80;;
28802;SDS011;15949;55.656;37.422;2023-12-28T20:44:11;4.75;;;3.05;;
28802;SDS011;15949;55.656;37.422;2023-12-28T20:49:17;5.40;;;3.40;;
28802;SDS011;15949;55.656;37.422;2023-12-28T20:54:23;4.95;;;3.78;;
28802;SDS011;15949;55.656;37.422;2023-12-28T20:59:28;5.35;;;3.90;;
28802;SDS011;15949;55.656;37.422;2023-12-28T21:04:34;5.10;;;3.58;;
28802;SDS011;15949;55.656;37.422;2023-12-28T21:09:40;4.70;;;3.47;;
28802;SDS011;15949;55.656;37.422;2023-12-28T21:14:46;5.85;;;3.63;;
28802;SDS011;15949;55.656;37.422;2023-12-28T21:19:51;5.28;;;3.15;;
28802;SDS011;15949;55.656;37.422;2023-12-28T21:24:57;4.03;;;3.20;;
28802;SDS011;15949;55.656;37.422;2023-12-28T21:30:03;4.55;;;3.03;;
28802;SDS011;15949;55.656;37.422;2023-12-28T21:35:09;6.43;;;3.80;;
28802;SDS011;15949;55.656;37.422;2023-12-28T21:40:16;5.35;;;3.70;;
28802;SDS011;15949;55.656;37.422;2023-12-28T21:45:21;4.88;;;3.60;;
28802;SDS011;15949;55.656;37.422;2023-12-28T21:50:27;6.07;;;3.63;;
28802;SDS011;15949;55.656;37.422;2023-12-28T21:55:32;4.90;;;3.75;;
28802;SDS011;15949;55.656;37.422;2023-12-28T22:00:38;4.93;;;3.60;;
28802;SDS011;15949;55.656;37.422;2023-12-28T22:05:44;6.72;;;4.00;;
28802;SDS011;15949;55.656;37.422;2023-12-28T22:10:49;6.38;;;3.55;;
28802;SDS011;15949;55.656;37.422;2023-12-28T22:15:56;5.18;;;3.65;;
28802;SDS011;15949;55.656;37.422;2023-12-28T22:21:03;4.53;;;3.50;;
28802;SDS011;15949;55.656;37.422;2023-12-28T22:26:09;5.40;;;3.60;;
28802;SDS011;15949;55.656;37.422;2023-12-28T22:31:14;6.13;;;3.92;;
28802;SDS011;15949;55.656;37.422;2023-12-28T22:36:20;4.13;;;3.15;;
28802;SDS011;15949;55.656;37.422;2023-12-28T22:41:26;5.10;;;3.67;;
28802;SDS011;15949;55.656;37.422;2023-12-28T22:46:31;4.95;;;3.67;;
28802;SDS011;15949;55.656;37.422;2023-12-28T22:51:37;6.93;;;3.83;;
28802;SDS011;15949;55.656;37.422;2023-12-28T22:56:43;4.95;;;3.80;;
28802;SDS011;15949;55.656;37.422;2023-12-28T23:01:49;4.93;;;3.72;;
28802;SDS011;15949;55.656;37.422;2023-12-28T23:06:54;5.22;;;3.65;;
28802;SDS011;15949;55.656;37.422;2023-12-28T23:12:00;5.40;;;3.60;;
28802;SDS011;15949;55.656;37.422;2023-12-28T23:17:06;4.38;;;3.28;;
28802;SDS011;15949;55.656;37.422;2023-12-28T23:22:11;5.22;;;3.13;;
28802;SDS011;15949;55.656;37.422;2023-12-28T23:27:17;4.15;;;3.00;;
28802;SDS011;15949;55.656;37.422;2023-12-28T23:32:22;6.07;;;3.40;;
28802;SDS011;15949;55.656;37.422;2023-12-28T23:37:28;6.00;;;3.15;;
28802;SDS011;15949;55.656;37.422;2023-12-28T23:42:35;5.05;;;3.30;;
28802;SDS011;15949;55.656;37.422;2023-12-28T23:47:42;5.35;;;3.35;;
28802;SDS011;15949;55.656;37.422;2023-12-28T23:52:47;5.63;;;3.45;;
28802;SDS011;15949;55.656;37.422;2023-12-28T23:57:53;5.35;;;3.60;;
